Time;durP1;ratioP1;P1;durP2;ratioP2;P2;SDS_P1;SDS_P2;PMS_P1;PMS_P2;Temp;Humidity;BMP_temperature;BMP_pressure;BME280_temperature;BME280_humidity;BME280_pressure;Samples;Min_cycle;Max_cycle;Signal;HPM_P1;HPM_P2
2021/03/04 00:01:11;;;;;;;23.07;15.50;;;6.00;99.90;;;-141.85;100.00;63675.41;5015341;28;20214;-66
2021/03/04 00:03:39;;;;;;;26.27;17.43;;;6.00;99.90;;;-141.85;100.00;63675.41;5015085;28;20207;-66
2021/03/04 00:06:07;;;;;;;27.13;18.63;;;5.90;99.90;;;-141.85;100.00;63675.41;5015534;28;20293;-66
2021/03/04 00:08:34;;;;;;;24.20;18.70;;;5.90;99.90;;;-141.85;100.00;63675.41;5015041;28;20726;-68
2021/03/04 00:11:01;;;;;;;27.37;17.50;;;6.00;99.90;;;-141.85;100.00;63675.41;5014061;28;20226;-67
2021/03/04 00:13:28;;;;;;;24.80;15.40;;;6.10;99.90;;;-141.85;100.00;63675.41;5015281;28;20227;-67
2021/03/04 00:15:55;;;;;;;25.13;15.17;;;6.20;99.90;;;-141.85;100.00;63675.41;5016335;28;20236;-66
2021/03/04 00:18:23;;;;;;;23.57;16.10;;;6.10;99.90;;;-141.85;100.00;63675.41;5015454;28;20206;-65
2021/03/04 00:20:52;;;;;;;23.10;16.47;;;6.10;99.90;;;-141.85;100.00;63675.41;5015121;28;20688;-67
2021/03/04 00:23:22;;;;;;;23.23;15.77;;;6.10;99.90;;;-141.85;100.00;63675.41;5014269;28;20710;-65
2021/03/04 00:25:49;;;;;;;22.90;15.27;;;6.10;99.90;;;-141.85;100.00;63675.41;5014248;28;20207;-66
2021/03/04 00:28:16;;;;;;;26.50;16.47;;;6.00;99.90;;;-141.85;100.00;63675.41;5014044;28;20727;-66
2021/03/04 00:30:43;;;;;;;23.40;16.97;;;5.90;99.90;;;-141.85;100.00;63675.41;5013876;28;20198;-67
2021/03/04 00:33:11;;;;;;;27.13;18.20;;;5.80;99.90;;;-141.85;100.00;63675.41;5013240;28;20713;-66
2021/03/04 00:35:38;;;;;;;23.60;17.13;;;5.90;99.90;;;-141.85;100.00;63675.41;5013543;28;20314;-66
2021/03/04 00:38:06;;;;;;;29.37;20.57;;;5.80;99.90;;;-141.85;100.00;63675.41;5013649;28;20301;-66
2021/03/04 00:40:34;;;;;;;36.73;26.83;;;5.80;99.90;;;-141.85;100.00;63675.41;5013651;28;20648;-65
2021/03/04 00:43:01;;;;;;;26.37;19.47;;;5.80;99.90;;;-141.85;100.00;63675.41;5013788;28;20290;-67
2021/03/04 00:45:29;;;;;;;28.30;18.07;;;5.80;99.90;;;-141.85;100.00;63675.41;5013373;28;20550;-65
2021/03/04 00:48:08;;;;;;;26.33;18.37;;;5.90;99.90;;;-141.85;100.00;63675.41;5013371;28;20191;-67
2021/03/04 00:50:38;;;;;;;29.23;20.40;;;5.90;99.90;;;-141.85;100.00;63675.41;5013529;28;20183;-67
2021/03/04 00:53:05;;;;;;;31.00;20.93;;;5.90;99.90;;;-141.85;100.00;63675.41;5013585;28;20633;-66
2021/03/04 00:55:33;;;;;;;27.90;19.70;;;6.00;99.90;;;-141.85;100.00;63675.41;5013025;28;20230;-65
2021/03/04 00:58:01;;;;;;;29.67;19.53;;;5.90;99.90;;;-141.85;100.00;63675.41;5013448;28;20201;-65
2021/03/04 01:00:28;;;;;;;30.27;18.80;;;5.80;99.90;;;-141.85;100.00;63675.41;5013198;28;20241;-64
2021/03/04 01:02:56;;;;;;;25.03;17.57;;;5.90;99.90;;;-141.85;100.00;63675.41;5012979;28;20283;-66
2021/03/04 01:05:25;;;;;;;25.20;17.60;;;5.90;99.90;;;-141.85;100.00;63675.41;5012911;28;20697;-65
2021/03/04 01:07:52;;;;;;;26.10;17.20;;;5.80;99.90;;;-141.85;100.00;63675.41;5012763;28;20281;-65
2021/03/04 01:10:23;;;;;;;25.07;16.67;;;5.80;99.90;;;-141.85;100.00;63675.41;5012714;28;20297;-65
2021/03/04 01:12:51;;;;;;;25.13;16.30;;;5.80;99.90;;;-141.85;100.00;63675.41;5013111;28;20218;-67
2021/03/04 01:15:21;;;;;;;26.07;17.50;;;5.80;99.90;;;-141.85;100.00;63675.41;5012912;28;20301;-66
2021/03/04 01:17:49;;;;;;;23.93;15.90;;;5.90;99.90;;;-141.85;100.00;63675.41;5012727;28;20285;-65
2021/03/04 01:20:18;;;;;;;24.93;16.43;;;5.90;99.90;;;-141.85;100.00;63675.41;5013003;28;20633;-65
2021/03/04 01:22:47;;;;;;;27.30;16.97;;;5.90;99.90;;;-141.85;100.00;63675.41;5012548;28;20206;-65
2021/03/04 01:25:16;;;;;;;24.50;15.97;;;5.80;99.90;;;-141.85;100.00;63675.41;5012804;28;20206;-66
2021/03/04 01:27:45;;;;;;;24.43;16.40;;;5.80;99.90;;;-141.85;100.00;63675.41;5013084;28;20248;-66
2021/03/04 01:30:15;;;;;;;25.93;17.50;;;5.70;99.90;;;-141.85;100.00;63675.41;5012632;28;20202;-66
2021/03/04 01:32:43;;;;;;;23.03;16.53;;;5.60;99.90;;;-141.85;100.00;63675.41;5012466;28;20257;-66
2021/03/04 01:35:11;;;;;;;24.57;18.77;;;5.60;99.90;;;-141.85;100.00;63675.41;5012437;28;20238;-65
2021/03/04 01:37:39;;;;;;;27.43;18.00;;;5.60;99.90;;;-141.85;100.00;63675.41;5012555;28;20638;-65
2021/03/04 01:40:09;;;;;;;25.57;18.07;;;5.70;99.90;;;-141.85;100.00;63675.41;5012862;28;20285;-65
2021/03/04 01:42:36;;;;;;;27.73;19.73;;;5.60;99.90;;;-141.85;100.00;63675.41;5012616;28;20285;-66
2021/03/04 01:45:05;;;;;;;36.03;26.87;;;5.60;99.90;;;-141.85;100.00;63675.41;5012402;28;20199;-65
2021/03/04 01:47:34;;;;;;;33.60;24.70;;;5.50;99.90;;;-141.85;100.00;63675.41;5012326;28;20290;-65
2021/03/04 01:50:04;;;;;;;30.73;23.57;;;5.60;99.90;;;-141.85;100.00;63675.41;5012805;28;20221;-66
2021/03/04 01:52:31;;;;;;;32.33;23.87;;;5.60;99.90;;;-141.85;100.00;63675.41;5012328;28;20313;-64
2021/03/04 01:54:59;;;;;;;29.87;22.60;;;5.60;99.90;;;-141.85;100.00;63675.41;5012331;28;20255;-65
2021/03/04 01:57:29;;;;;;;29.73;22.03;;;5.60;99.90;;;-141.85;100.00;63675.41;5012342;28;20203;-66
2021/03/04 01:59:57;;;;;;;28.90;19.57;;;5.60;99.90;;;-141.85;100.00;63675.41;5012197;28;20267;-66
2021/03/04 02:02:25;;;;;;;28.80;19.10;;;5.60;99.90;;;-141.85;100.00;63675.41;5012061;28;20661;-65
2021/03/04 02:04:54;;;;;;;26.67;18.57;;;5.60;99.90;;;-141.85;100.00;63675.41;5012187;28;20209;-65
2021/03/04 02:07:39;;;;;;;28.27;19.67;;;5.60;99.90;;;-141.85;100.00;63675.41;5012259;28;20230;-65
2021/03/04 02:10:16;;;;;;;26.60;18.80;;;5.60;99.90;;;-141.85;100.00;63675.41;5012110;28;20262;-65
2021/03/04 02:12:53;;;;;;;28.33;18.63;;;5.60;99.90;;;-141.85;100.00;63675.41;5011897;28;20280;-66
2021/03/04 02:15:30;;;;;;;25.50;17.00;;;5.50;99.90;;;-141.85;100.00;63675.41;5012108;28;20266;-65
2021/03/04 02:18:03;;;;;;;25.73;17.73;;;5.50;99.90;;;-141.85;100.00;63675.41;5011879;28;20226;-65
2021/03/04 02:20:45;;;;;;;24.50;17.10;;;5.60;99.90;;;-141.85;100.00;63675.41;5012220;28;20197;-65
2021/03/04 02:23:42;;;;;;;27.37;17.67;;;5.70;99.90;;;-141.85;100.00;63675.41;5011841;28;20638;-66
2021/03/04 02:26:26;;;;;;;28.33;18.07;;;5.70;99.90;;;-141.85;100.00;63675.41;5012003;28;20183;-66
2021/03/04 02:28:58;;;;;;;27.23;17.83;;;5.70;99.90;;;-141.85;100.00;63675.41;5011900;28;20737;-65
2021/03/04 02:31:32;;;;;;;25.00;17.67;;;5.60;99.90;;;-141.85;100.00;63675.41;5011757;28;20221;-66
2021/03/04 02:34:04;;;;;;;30.20;20.10;;;5.60;99.90;;;-141.85;100.00;63675.41;5012196;28;20521;-65
2021/03/04 02:36:35;;;;;;;35.00;27.00;;;5.60;99.90;;;-141.85;100.00;63675.41;5016150;28;20186;-66
2021/03/04 02:39:07;;;;;;;35.47;23.97;;;5.60;99.90;;;-141.85;100.00;63675.41;5015658;28;20218;-65
2021/03/04 02:41:37;;;;;;;31.60;19.70;;;5.60;99.90;;;-141.85;100.00;63675.41;5015646;28;20241;-66
2021/03/04 02:44:09;;;;;;;27.77;19.10;;;5.50;99.90;;;-141.85;100.00;63675.41;5015628;28;20294;-66
2021/03/04 02:46:39;;;;;;;27.67;18.63;;;5.60;99.90;;;-141.85;100.00;63675.41;5015404;28;20537;-66
2021/03/04 02:49:08;;;;;;;27.70;18.17;;;5.80;99.90;;;-141.85;100.00;63675.41;5015541;28;20202;-66
2021/03/04 02:51:37;;;;;;;29.00;18.43;;;5.90;99.90;;;-141.85;100.00;63675.41;5015447;28;20256;-65
2021/03/04 02:54:06;;;;;;;30.90;20.03;;;5.90;99.90;;;-141.85;100.00;63675.41;5015760;28;20313;-65
2021/03/04 02:56:35;;;;;;;27.47;20.13;;;6.00;99.90;;;-141.85;100.00;63675.41;5015486;28;20591;-65
2021/03/04 02:59:06;;;;;;;30.87;20.07;;;6.00;99.90;;;-141.85;100.00;63675.41;5015646;28;20211;-66
2021/03/04 03:01:36;;;;;;;29.50;19.80;;;6.00;99.90;;;-141.85;100.00;63675.41;5015024;28;20190;-66
2021/03/04 03:04:05;;;;;;;29.50;19.40;;;6.00;99.90;;;-141.85;100.00;63675.41;5015274;28;20293;-65
2021/03/04 03:06:35;;;;;;;27.67;20.53;;;6.00;99.90;;;-141.85;100.00;63675.41;5015660;28;20195;-66
2021/03/04 03:09:04;;;;;;;27.50;18.97;;;6.10;99.90;;;-141.85;100.00;63675.41;5015751;28;20689;-65
2021/03/04 03:11:32;;;;;;;27.83;19.23;;;6.10;99.90;;;-141.85;100.00;63675.41;5015464;28;20290;-67
2021/03/04 03:14:01;;;;;;;28.40;19.20;;;6.10;99.90;;;-141.85;100.00;63675.41;5015419;28;20254;-66
2021/03/04 03:16:29;;;;;;;28.47;20.07;;;6.10;99.90;;;-141.85;100.00;63675.41;5014919;28;20205;-66
2021/03/04 03:18:56;;;;;;;28.17;20.10;;;6.10;99.90;;;-141.85;100.00;63675.41;5015159;28;20246;-65
2021/03/04 03:21:23;;;;;;;29.30;20.17;;;6.10;99.90;;;-141.85;100.00;63675.41;5015327;28;20199;-67
2021/03/04 03:23:50;;;;;;;27.93;20.40;;;6.00;99.90;;;-141.85;100.00;63675.41;5015230;28;20207;-66
2021/03/04 03:26:17;;;;;;;27.60;20.63;;;5.90;99.90;;;-141.85;100.00;63675.41;5014941;28;20299;-66
2021/03/04 03:28:45;;;;;;;27.97;22.73;;;5.80;99.90;;;-141.85;100.00;63675.41;5015154;28;20234;-66
2021/03/04 03:31:14;;;;;;;31.60;23.30;;;5.80;99.90;;;-141.85;100.00;63675.41;5014323;28;20199;-65
2021/03/04 03:33:42;;;;;;;29.70;22.10;;;5.70;99.90;;;-141.85;100.00;63675.41;5014602;28;20313;-65
2021/03/04 03:36:11;;;;;;;27.83;21.40;;;5.70;99.90;;;-141.85;100.00;63675.41;5014794;28;20238;-66
2021/03/04 03:38:40;;;;;;;31.13;19.63;;;5.70;99.90;;;-141.85;100.00;63675.41;5014605;28;20686;-66
2021/03/04 03:41:08;;;;;;;30.13;19.73;;;5.60;99.90;;;-141.85;100.00;63675.41;5014761;28;20203;-66
2021/03/04 03:43:36;;;;;;;27.23;19.27;;;5.50;99.90;;;-141.85;100.00;63675.41;5014679;28;20630;-64
2021/03/04 03:46:05;;;;;;;28.27;18.87;;;5.50;99.90;;;-141.85;100.00;63675.41;5013969;28;20733;-65
2021/03/04 03:48:34;;;;;;;28.23;18.43;;;5.50;99.90;;;-141.85;100.00;63675.41;5014513;28;20622;-65
2021/03/04 03:51:02;;;;;;;28.30;18.90;;;5.40;99.90;;;-141.85;100.00;63675.41;5014801;28;20251;-66
2021/03/04 03:53:32;;;;;;;31.13;19.97;;;5.40;99.90;;;-141.85;100.00;63675.41;5014643;28;20313;-65
2021/03/04 03:55:59;;;;;;;27.83;18.93;;;5.40;99.90;;;-141.85;100.00;63675.41;5014488;28;20230;-65
2021/03/04 03:58:29;;;;;;;29.87;19.17;;;5.40;99.90;;;-141.85;100.00;63675.41;5014657;28;20623;-67
2021/03/04 04:00:57;;;;;;;27.97;18.27;;;5.40;99.90;;;-141.85;100.00;63675.41;5014417;28;20289;-66
2021/03/04 04:03:25;;;;;;;26.70;18.10;;;5.50;99.90;;;-141.85;100.00;63675.41;5014258;28;20203;-66
2021/03/04 04:05:53;;;;;;;28.63;18.27;;;5.50;99.90;;;-141.85;100.00;63675.41;5014114;28;20257;-65
2021/03/04 04:08:23;;;;;;;27.10;18.97;;;5.50;99.90;;;-141.85;100.00;63675.41;5014094;28;20748;-65
2021/03/04 04:10:51;;;;;;;30.40;19.17;;;5.50;99.90;;;-141.85;100.00;63675.41;5013944;28;20193;-65
2021/03/04 04:13:19;;;;;;;32.43;19.67;;;5.60;99.90;;;-141.85;100.00;63675.41;5014289;28;20223;-65
2021/03/04 04:15:47;;;;;;;28.43;18.90;;;5.60;99.90;;;-141.85;100.00;63675.41;5014084;28;20210;-65
2021/03/04 04:18:16;;;;;;;27.03;19.47;;;5.70;99.90;;;-141.85;100.00;63675.41;5013957;28;20211;-66
2021/03/04 04:20:49;;;;;;;27.30;19.50;;;5.70;99.90;;;-141.85;100.00;63675.41;5014049;28;20187;-67
2021/03/04 04:23:18;;;;;;;27.90;18.50;;;5.60;99.90;;;-141.85;100.00;63675.41;5014039;28;20201;-66
2021/03/04 04:25:50;;;;;;;24.07;17.57;;;5.60;99.90;;;-141.85;100.00;63675.41;5013598;28;20736;-66
2021/03/04 04:28:19;;;;;;;30.13;18.97;;;5.50;99.90;;;-141.85;100.00;63675.41;5014095;28;20541;-65
2021/03/04 04:30:46;;;;;;;29.27;18.30;;;5.40;99.90;;;-141.85;100.00;63675.41;5013247;28;20551;-66
2021/03/04 04:33:14;;;;;;;24.50;17.43;;;5.40;99.90;;;-141.85;100.00;63675.41;5013820;28;20227;-65
2021/03/04 04:35:42;;;;;;;33.03;19.33;;;5.30;99.90;;;-141.85;100.00;63675.41;5013658;28;20226;-65
2021/03/04 04:38:11;;;;;;;28.23;18.40;;;5.20;99.90;;;-141.85;100.00;63675.41;5013601;28;20698;-66
2021/03/04 04:40:38;;;;;;;44.03;31.73;;;5.20;99.90;;;-141.85;100.00;63675.41;5013692;28;20199;-65
2021/03/04 04:43:06;;;;;;;43.93;34.33;;;5.20;99.90;;;-141.85;100.00;63675.41;5013632;28;20199;-65
2021/03/04 04:45:33;;;;;;;38.20;26.10;;;5.20;99.90;;;-141.85;100.00;63675.41;5013737;28;20302;-66
2021/03/04 04:48:00;;;;;;;33.23;25.17;;;5.20;99.90;;;-141.85;100.00;63675.41;5014540;28;20236;-67
2021/03/04 04:50:27;;;;;;;36.97;27.00;;;5.10;99.90;;;-141.85;100.00;63675.41;5014467;28;20440;-65
2021/03/04 04:52:55;;;;;;;39.27;28.37;;;5.10;99.90;;;-141.85;100.00;63675.41;5013435;28;20237;-66
2021/03/04 04:55:22;;;;;;;34.93;25.20;;;5.10;99.90;;;-141.85;100.00;63675.41;5013346;28;20264;-66
2021/03/04 04:57:50;;;;;;;32.73;23.63;;;5.10;99.90;;;-141.85;100.00;63675.41;5012860;28;20221;-66
2021/03/04 05:00:20;;;;;;;30.97;22.07;;;5.00;99.90;;;-141.85;100.00;63675.41;5012800;28;20213;-65
2021/03/04 05:02:47;;;;;;;34.90;24.10;;;5.00;99.90;;;-141.85;100.00;63675.41;5013832;28;20282;-66
2021/03/04 05:05:14;;;;;;;33.07;21.30;;;4.90;99.90;;;-141.85;100.00;63675.41;5013374;28;20210;-67
2021/03/04 05:07:41;;;;;;;30.73;21.03;;;4.90;99.90;;;-141.85;100.00;63675.41;5013077;28;20638;-66
2021/03/04 05:10:10;;;;;;;32.10;21.10;;;4.90;99.90;;;-141.85;100.00;63675.41;5012897;28;20230;-65
2021/03/04 05:12:38;;;;;;;31.07;19.90;;;4.90;99.90;;;-141.85;100.00;63675.41;5012993;28;20217;-65
2021/03/04 05:15:09;;;;;;;29.53;20.77;;;4.90;99.90;;;-141.85;100.00;63675.41;5012778;28;20219;-66
2021/03/04 05:17:37;;;;;;;29.13;20.43;;;4.90;99.90;;;-141.85;100.00;63675.41;5011886;28;20270;-66
2021/03/04 05:20:10;;;;;;;33.43;20.17;;;4.90;99.90;;;-141.85;100.00;63675.41;5012954;28;20608;-66
2021/03/04 05:22:38;;;;;;;27.87;19.37;;;5.00;99.90;;;-141.85;100.00;63675.41;5012974;28;20202;-66
2021/03/04 05:25:07;;;;;;;34.27;19.77;;;5.00;99.90;;;-141.85;100.00;63675.41;5012961;28;20245;-66
2021/03/04 05:27:34;;;;;;;33.17;19.50;;;5.00;99.90;;;-141.85;100.00;63675.41;5012981;28;20291;-66
2021/03/04 05:30:01;;;;;;;35.10;20.53;;;4.90;99.90;;;-141.85;100.00;63675.41;5012503;28;20242;-65
2021/03/04 05:32:28;;;;;;;33.97;22.33;;;4.90;99.90;;;-141.85;100.00;63675.41;5012754;28;20252;-66
2021/03/04 05:34:56;;;;;;;33.03;22.87;;;4.90;99.90;;;-141.85;100.00;63675.41;5012773;28;20304;-65
2021/03/04 05:37:23;;;;;;;28.07;22.07;;;4.90;99.90;;;-141.85;100.00;63675.41;5012553;28;20229;-66
2021/03/04 05:39:50;;;;;;;31.17;22.23;;;4.90;99.90;;;-141.85;100.00;63675.41;5013000;28;20210;-66
2021/03/04 05:42:18;;;;;;;34.63;21.83;;;4.90;99.90;;;-141.85;100.00;63675.41;5012518;28;20294;-66
2021/03/04 05:44:47;;;;;;;37.20;21.67;;;5.00;99.90;;;-141.85;100.00;63675.41;5012441;28;20210;-66
2021/03/04 05:47:16;;;;;;;33.50;21.50;;;4.90;99.90;;;-141.85;100.00;63675.41;5012324;28;20206;-67
2021/03/04 05:49:50;;;;;;;36.83;23.00;;;5.00;99.90;;;-141.85;100.00;63675.41;5012317;28;20209;-67
2021/03/04 05:52:20;;;;;;;36.83;24.80;;;5.00;99.90;;;-141.85;100.00;63675.41;5012582;28;20211;-65
2021/03/04 05:54:51;;;;;;;32.30;22.30;;;5.00;99.90;;;-141.85;100.00;63675.41;5012438;28;20305;-66
2021/03/04 05:57:18;;;;;;;32.23;20.97;;;5.00;99.90;;;-141.85;100.00;63675.41;5012147;28;20282;-66
2021/03/04 05:59:47;;;;;;;32.97;21.13;;;5.00;99.90;;;-141.85;100.00;63675.41;5012119;28;20210;-66
2021/03/04 06:02:14;;;;;;;32.43;20.57;;;5.10;99.90;;;-141.85;100.00;63675.41;5008234;28;20298;-66
2021/03/04 06:04:44;;;;;;;33.73;21.03;;;5.10;99.90;;;-141.85;100.00;63675.41;5001033;28;20222;-67
2021/03/04 06:07:11;;;;;;;33.87;21.87;;;5.20;99.90;;;-141.85;100.00;63675.41;5011953;28;20233;-66
2021/03/04 06:09:39;;;;;;;36.03;24.17;;;5.30;99.90;;;-141.85;100.00;63675.41;5011333;28;20239;-67
2021/03/04 06:12:08;;;;;;;36.40;22.93;;;5.40;99.90;;;-141.85;100.00;63675.41;5008148;28;20237;-67
2021/03/04 06:14:36;;;;;;;35.87;22.20;;;5.50;99.90;;;-141.85;100.00;63675.41;5000884;28;20274;-65
2021/03/04 06:17:15;;;;;;;37.53;21.70;;;5.40;99.90;;;-141.85;100.00;63675.41;4992247;28;20679;-66
2021/03/04 06:19:52;;;;;;;31.93;21.23;;;5.40;99.90;;;-141.85;100.00;63675.41;4992411;28;20207;-67
2021/03/04 06:22:27;;;;;;;34.93;24.03;;;5.50;99.90;;;-141.85;100.00;63675.41;4992651;28;20253;-66
2021/03/04 06:24:58;;;;;;;34.07;22.93;;;5.50;99.90;;;-141.85;100.00;63675.41;4992285;28;20183;-67
2021/03/04 06:27:28;;;;;;;40.40;25.27;;;5.50;99.90;;;-141.85;100.00;63675.41;4992586;28;20288;-61
2021/03/04 06:29:58;;;;;;;40.37;25.13;;;5.50;99.90;;;-141.85;100.00;63675.41;4995064;28;20200;-62
2021/03/04 06:32:26;;;;;;;36.07;24.80;;;5.60;99.90;;;-141.85;100.00;63675.41;5001487;28;20254;-62
2021/03/04 06:35:10;;;;;;;34.17;24.67;;;5.60;99.90;;;-141.85;100.00;63675.41;4999864;28;20250;-62
2021/03/04 06:37:39;;;;;;;35.07;23.97;;;5.60;99.90;;;-141.85;100.00;63675.41;4996822;28;20208;-61
2021/03/04 06:40:20;;;;;;;38.60;25.93;;;5.60;99.90;;;-141.85;100.00;63675.41;4992112;28;20234;-62
2021/03/04 06:42:49;;;;;;;37.20;24.50;;;5.60;99.90;;;-141.85;100.00;63675.41;4992188;28;20271;-61
2021/03/04 06:45:25;;;;;;;33.47;22.17;;;5.60;99.90;;;-141.85;100.00;63675.41;4992303;28;20199;-62
2021/03/04 06:48:05;;;;;;;32.77;21.70;;;5.80;99.90;;;-141.85;100.00;63675.41;4992849;28;20304;-61
2021/03/04 06:50:32;;;;;;;35.77;22.90;;;5.90;99.90;;;-141.85;100.00;63675.41;4994815;28;20218;-61
2021/03/04 06:53:10;;;;;;;37.33;22.07;;;6.10;99.90;;;-141.85;100.00;63675.41;5000626;28;20211;-62
2021/03/04 06:55:52;;;;;;;33.10;22.03;;;6.10;99.90;;;-141.85;100.00;63675.41;4996504;28;20274;-62
2021/03/04 06:58:29;;;;;;;40.30;22.40;;;6.30;99.90;;;-141.85;100.00;63675.41;5011850;28;20278;-62
2021/03/04 07:01:11;;;;;;;32.37;21.70;;;6.50;99.90;;;-141.85;100.00;63675.41;5011358;28;20202;-61
2021/03/04 07:03:42;;;;;;;34.50;21.90;;;6.70;99.90;;;-141.85;100.00;63675.41;5011746;28;20227;-62
2021/03/04 07:06:29;;;;;;;35.73;21.40;;;7.10;99.90;;;-141.85;100.00;63675.41;5001465;28;20218;-61
2021/03/04 07:08:56;;;;;;;33.80;21.80;;;7.30;99.90;;;-141.85;100.00;63675.41;5004174;28;20210;-60
2021/03/04 07:11:25;;;;;;;33.40;20.97;;;7.40;99.90;;;-141.85;100.00;63675.41;5011366;28;20253;-61
2021/03/04 07:13:53;;;;;;;31.27;20.10;;;7.50;99.90;;;-141.85;100.00;63675.41;5003867;28;20269;-59
2021/03/04 07:16:30;;;;;;;33.33;21.63;;;7.50;99.90;;;-141.85;100.00;63675.41;5005483;28;20721;-60
2021/03/04 07:19:00;;;;;;;32.83;20.67;;;7.70;99.90;;;-141.85;100.00;63675.41;5011529;28;20186;-61
2021/03/04 07:21:33;;;;;;;32.27;21.43;;;7.70;99.90;;;-141.85;100.00;63675.41;5008980;28;20246;-60
2021/03/04 07:24:05;;;;;;;34.20;22.37;;;7.80;99.90;;;-141.85;100.00;63675.41;5014967;28;20290;-61
2021/03/04 07:26:36;;;;;;;32.37;22.57;;;8.00;99.90;;;-141.85;100.00;63675.41;5014878;28;20274;-60
2021/03/04 07:29:05;;;;;;;34.07;22.97;;;8.20;99.90;;;-141.85;100.00;63675.41;5014503;28;20192;-60
2021/03/04 07:31:33;;;;;;;34.10;22.40;;;8.40;99.90;;;-141.85;100.00;63675.41;5007360;28;20270;-59
2021/03/04 07:34:02;;;;;;;33.60;24.27;;;8.60;99.90;;;-141.85;100.00;63675.41;5001692;28;20230;-59
2021/03/04 07:36:30;;;;;;;36.87;23.37;;;8.80;99.90;;;-141.85;100.00;63675.41;4992230;28;20219;-61
2021/03/04 07:38:59;;;;;;;37.33;22.40;;;8.90;99.90;;;-141.85;100.00;63675.41;5011855;28;20195;-60
2021/03/04 07:41:38;;;;;;;33.43;22.37;;;9.00;99.90;;;-141.85;100.00;63675.41;5011488;28;20207;-60
2021/03/04 07:44:07;;;;;;;34.20;22.37;;;9.10;99.90;;;-141.85;100.00;63675.41;5011449;28;20286;-60
2021/03/04 07:46:37;;;;;;;36.00;22.70;;;9.10;99.90;;;-141.85;100.00;63675.41;5011149;28;20626;-60
2021/03/04 07:49:07;;;;;;;34.60;24.00;;;9.10;99.90;;;-141.85;100.00;63675.41;5007954;28;20195;-59
2021/03/04 07:51:46;;;;;;;33.53;23.73;;;9.20;99.90;;;-141.85;100.00;63675.41;5000241;28;20238;-61
2021/03/04 07:54:25;;;;;;;34.87;24.90;;;9.20;99.90;;;-141.85;100.00;63675.41;4991957;28;20242;-59
2021/03/04 07:57:03;;;;;;;35.67;24.67;;;9.20;99.90;;;-141.85;100.00;63675.41;5005577;28;20226;-60
2021/03/04 07:59:30;;;;;;;39.80;25.57;;;9.20;99.90;;;-141.85;100.00;63675.41;5009741;28;20233;-61
2021/03/04 08:01:59;;;;;;;41.37;27.53;;;9.30;99.90;;;-141.85;100.00;63675.41;5011030;28;20206;-60
2021/03/04 08:04:30;;;;;;;37.83;26.33;;;9.30;99.90;;;-141.85;100.00;63675.41;5011050;28;20206;-61
2021/03/04 08:06:59;;;;;;;40.73;27.90;;;9.30;99.90;;;-141.85;100.00;63675.41;5002634;28;20281;-60
2021/03/04 08:09:32;;;;;;;45.13;29.60;;;9.30;99.90;;;-141.85;100.00;63675.41;4991622;28;20302;-60
2021/03/04 08:12:11;;;;;;;42.27;28.97;;;9.20;99.90;;;-141.85;100.00;63675.41;4990829;28;20467;-59
2021/03/04 08:14:40;;;;;;;48.03;31.20;;;9.20;99.90;;;-141.85;100.00;63675.41;4990662;28;20207;-58
2021/03/04 08:17:08;;;;;;;44.33;30.70;;;9.30;99.90;;;-141.85;100.00;63675.41;4990853;28;20584;-58
2021/03/04 08:19:36;;;;;;;48.43;31.43;;;9.30;99.90;;;-141.85;100.00;63675.41;4993428;28;20290;-58
2021/03/04 08:22:07;;;;;;;51.07;33.73;;;9.50;99.90;;;-141.85;100.00;63675.41;4998998;28;20266;-59
2021/03/04 08:24:38;;;;;;;46.70;31.27;;;9.60;99.90;;;-141.85;100.00;63675.41;4990970;28;20192;-61
2021/03/04 08:27:07;;;;;;;44.77;32.50;;;9.60;99.90;;;-141.85;100.00;63675.41;4990707;28;20275;-61
2021/03/04 08:29:46;;;;;;;47.97;33.47;;;9.60;99.90;;;-141.85;100.00;63675.41;4990325;28;20184;-60
2021/03/04 08:32:15;;;;;;;45.63;32.87;;;9.40;99.90;;;-141.85;100.00;63675.41;4989739;28;20187;-62
2021/03/04 08:34:43;;;;;;;47.77;32.77;;;9.30;99.90;;;-141.85;100.00;63675.41;4990585;28;20247;-60
2021/03/04 08:37:22;;;;;;;53.20;36.53;;;9.20;99.90;;;-141.85;100.00;63675.41;4990523;28;20663;-60
2021/03/04 08:39:54;;;;;;;55.70;37.13;;;8.80;99.90;;;-141.85;100.00;63675.41;4990693;28;20242;-59
2021/03/04 08:42:24;;;;;;;56.60;38.53;;;8.50;99.90;;;-141.85;100.00;63675.41;4990307;28;20192;-59
2021/03/04 08:44:52;;;;;;;58.87;39.00;;;8.20;99.90;;;-141.85;100.00;63675.41;4990291;28;20184;-59
2021/03/04 08:47:19;;;;;;;59.87;38.50;;;8.10;99.90;;;-141.85;100.00;63675.41;4990390;28;20286;-59
2021/03/04 08:49:52;;;;;;;63.97;39.93;;;8.00;99.90;;;-141.85;100.00;63675.41;4989981;28;20667;-60
2021/03/04 08:52:23;;;;;;;63.10;40.30;;;8.00;99.90;;;-141.85;100.00;63675.41;4990420;28;20290;-60
2021/03/04 08:54:52;;;;;;;61.50;40.20;;;8.00;99.90;;;-141.85;100.00;63675.41;4990021;28;20215;-59
2021/03/04 08:57:29;;;;;;;62.07;40.33;;;8.00;99.90;;;-141.85;100.00;63675.41;5007849;28;20683;-61
2021/03/04 09:00:18;;;;;;;69.33;42.23;;;7.80;99.90;;;-141.85;100.00;63675.41;5009862;28;20290;-62
2021/03/04 09:02:45;;;;;;;62.37;40.90;;;7.70;99.90;;;-141.85;100.00;63675.41;5005143;28;20238;-61
2021/03/04 09:05:21;;;;;;;64.37;42.60;;;7.60;99.90;;;-141.85;100.00;63675.41;5009652;28;20506;-63
2021/03/04 09:07:50;;;;;;;67.47;43.27;;;7.40;99.90;;;-141.85;100.00;63675.41;5009449;28;20219;-65
2021/03/04 09:10:17;;;;;;;61.30;40.73;;;7.40;99.90;;;-141.85;100.00;63675.41;5009455;28;20301;-64
2021/03/04 09:12:47;;;;;;;72.53;43.13;;;7.40;99.90;;;-141.85;100.00;63675.41;5010575;28;20279;-66
2021/03/04 09:15:18;;;;;;;67.47;42.37;;;7.40;99.90;;;-141.85;100.00;63675.41;5012836;28;20265;-60
2021/03/04 09:17:46;;;;;;;67.13;42.83;;;7.40;99.90;;;-141.85;100.00;63675.41;5011820;28;20233;-60
2021/03/04 09:20:17;;;;;;;73.60;43.97;;;7.40;99.90;;;-141.85;100.00;63675.41;5009058;28;20713;-61
2021/03/04 09:22:45;;;;;;;71.63;43.67;;;7.10;99.90;;;-141.85;100.00;63675.41;5009005;28;20742;-60
2021/03/04 09:25:17;;;;;;;75.73;44.70;;;7.00;99.90;;;-141.85;100.00;63675.41;5009246;28;20289;-60
2021/03/04 09:27:45;;;;;;;70.43;44.17;;;6.80;99.90;;;-141.85;100.00;63675.41;5008827;28;20635;-60
2021/03/04 09:30:25;;;;;;;73.40;43.77;;;6.80;99.90;;;-141.85;100.00;63675.41;5009062;28;20578;-60
2021/03/04 09:32:53;;;;;;;81.67;44.23;;;6.80;99.90;;;-141.85;100.00;63675.41;5008867;28;20183;-59
2021/03/04 09:35:20;;;;;;;74.47;44.43;;;7.00;99.90;;;-141.85;100.00;63675.41;5008761;28;20667;-60
2021/03/04 09:37:49;;;;;;;81.53;46.10;;;6.90;99.90;;;-141.85;100.00;63675.41;5009160;28;20203;-60
2021/03/04 09:40:26;;;;;;;78.07;46.87;;;6.80;99.90;;;-141.85;100.00;63675.41;5008622;28;20238;-60
2021/03/04 09:42:55;;;;;;;73.43;44.70;;;6.50;99.90;;;-141.85;100.00;63675.41;5008411;28;21247;-60
2021/03/04 09:45:23;;;;;;;78.73;46.13;;;6.60;99.90;;;-141.85;100.00;63675.41;5009220;28;20261;-61
2021/03/04 09:47:51;;;;;;;78.13;45.47;;;6.70;99.90;;;-141.85;100.00;63675.41;5008693;28;20281;-60
2021/03/04 09:50:25;;;;;;;80.07;47.50;;;6.80;99.90;;;-141.85;100.00;63675.41;5009147;28;20215;-60
2021/03/04 09:53:02;;;;;;;86.67;46.73;;;7.00;99.90;;;-141.85;100.00;63675.41;5008841;28;20207;-62
2021/03/04 09:55:38;;;;;;;80.63;46.53;;;7.10;99.90;;;-141.85;100.00;63675.41;5008690;28;20585;-59
2021/03/04 09:58:14;;;;;;;79.60;44.80;;;7.00;99.90;;;-141.85;100.00;63675.41;5008317;28;20631;-56
2021/03/04 10:00:42;;;;;;;79.17;45.07;;;7.00;99.90;;;-141.85;100.00;63675.41;5008419;28;20249;-60
2021/03/04 10:03:33;;;;;;;90.60;47.77;;;7.10;99.90;;;-141.85;100.00;63675.41;5008552;28;20200;-56
2021/03/04 10:06:01;;;;;;;85.90;48.20;;;6.90;99.90;;;-141.85;100.00;63675.41;5008337;28;20634;-58